sensor_id;sensor_type;location;lat;lon;timestamp;pressure;altitude;pressure_sealevel;temperature;humidity
84928;BME280;75189;50.640;19.242;2024-01-30T00:02:38;103713.41;;;-0.71;73.24
84928;BME280;75189;50.640;19.242;2024-01-30T00:08:45;103707.03;;;-0.76;73.22
84928;BME280;75189;50.640;19.242;2024-01-30T00:15:09;103710.42;;;-0.82;73.29
84928;BME280;75189;50.640;19.242;2024-01-30T00:21:17;103716.56;;;-0.84;73.26
84928;BME280;75189;50.640;19.242;2024-01-30T00:27:24;103717.28;;;-0.90;73.24
84928;BME280;75189;50.640;19.242;2024-01-30T00:33:31;103710.01;;;-0.94;73.25
84928;BME280;75189;50.640;19.242;2024-01-30T00:39:38;103715.06;;;-1.03;73.27
84928;BME280;75189;50.640;19.242;2024-01-30T00:45:45;103714.99;;;-1.06;73.37
84928;BME280;75189;50.640;19.242;2024-01-30T00:51:52;103714.02;;;-1.08;73.48
84928;BME280;75189;50.640;19.242;2024-01-30T00:57:59;103711.34;;;-1.08;73.50
84928;BME280;75189;50.640;19.242;2024-01-30T01:04:27;103697.87;;;-1.11;73.59
84928;BME280;75189;50.640;19.242;2024-01-30T01:10:34;103690.67;;;-1.14;73.68
84928;BME280;75189;50.640;19.242;2024-01-30T01:16:41;103687.80;;;-1.20;73.73
84928;BME280;75189;50.640;19.242;2024-01-30T01:22:48;103673.59;;;-1.19;73.78
84928;BME280;75189;50.640;19.242;2024-01-30T01:28:55;103669.10;;;-1.20;73.76
84928;BME280;75189;50.640;19.242;2024-01-30T01:35:02;103668.99;;;-1.23;73.89
84928;BME280;75189;50.640;19.242;2024-01-30T01:41:12;103670.80;;;-1.22;73.95
84928;BME280;75189;50.640;19.242;2024-01-30T01:47:19;103669.94;;;-1.21;73.98
84928;BME280;75189;50.640;19.242;2024-01-30T01:53:45;103669.03;;;-1.21;73.97
84928;BME280;75189;50.640;19.242;2024-01-30T01:59:52;103668.13;;;-1.22;73.99
84928;BME280;75189;50.640;19.242;2024-01-30T02:05:59;103666.28;;;-1.24;73.98
84928;BME280;75189;50.640;19.242;2024-01-30T02:12:07;103664.44;;;-1.25;74.01
84928;BME280;75189;50.640;19.242;2024-01-30T02:18:14;103664.44;;;-1.25;74.06
84928;BME280;75189;50.640;19.242;2024-01-30T02:24:21;103659.09;;;-1.25;74.11
84928;BME280;75189;50.640;19.242;2024-01-30T02:30:28;103659.18;;;-1.24;74.22
84928;BME280;75189;50.640;19.242;2024-01-30T02:36:35;103656.58;;;-1.21;74.27
84928;BME280;75189;50.640;19.242;2024-01-30T02:43:02;103655.68;;;-1.21;74.27
84928;BME280;75189;50.640;19.242;2024-01-30T02:49:10;103654.63;;;-1.26;74.32
84928;BME280;75189;50.640;19.242;2024-01-30T02:55:17;103655.59;;;-1.24;74.33
84928;BME280;75189;50.640;19.242;2024-01-30T03:01:25;103651.09;;;-1.25;74.31
84928;BME280;75189;50.640;19.242;2024-01-30T03:07:33;103647.62;;;-1.23;74.36
84928;BME280;75189;50.640;19.242;2024-01-30T03:13:40;103639.56;;;-1.24;74.37
84928;BME280;75189;50.640;19.242;2024-01-30T03:19:47;103639.47;;;-1.27;74.37
84928;BME280;75189;50.640;19.242;2024-01-30T03:25:54;103644.69;;;-1.31;74.43
84928;BME280;75189;50.640;19.242;2024-01-30T03:32:19;103647.50;;;-1.26;74.43
84928;BME280;75189;50.640;19.242;2024-01-30T03:38:26;103642.99;;;-1.29;74.43
84928;BME280;75189;50.640;19.242;2024-01-30T03:44:33;103631.45;;;-1.27;74.47
84928;BME280;75189;50.640;19.242;2024-01-30T03:50:40;103629.67;;;-1.27;74.43
84928;BME280;75189;50.640;19.242;2024-01-30T03:56:47;103626.99;;;-1.27;74.40
84928;BME280;75189;50.640;19.242;2024-01-30T04:02:54;103634.12;;;-1.27;74.37
84928;BME280;75189;50.640;19.242;2024-01-30T04:09:01;103633.09;;;-1.31;74.32
84928;BME280;75189;50.640;19.242;2024-01-30T04:15:10;103630.32;;;-1.34;74.34
84928;BME280;75189;50.640;19.242;2024-01-30T04:21:37;103631.10;;;-1.38;74.34
84928;BME280;75189;50.640;19.242;2024-01-30T04:27:44;103632.77;;;-1.42;74.36
84928;BME280;75189;50.640;19.242;2024-01-30T04:33:51;103613.61;;;-1.56;74.38
84928;BME280;75189;50.640;19.242;2024-01-30T04:39:58;103635.98;;;-1.52;74.36
84928;BME280;75189;50.640;19.242;2024-01-30T04:46:05;103640.47;;;-1.51;74.35
84928;BME280;75189;50.640;19.242;2024-01-30T04:52:12;103649.27;;;-1.54;74.30
84928;BME280;75189;50.640;19.242;2024-01-30T04:58:19;103642.98;;;-1.56;74.31
84928;BME280;75189;50.640;19.242;2024-01-30T05:04:26;103612.87;;;-1.77;74.29
84928;BME280;75189;50.640;19.242;2024-01-30T05:10:54;103643.69;;;-1.61;74.26
84928;BME280;75189;50.640;19.242;2024-01-30T05:17:01;103653.34;;;-1.65;74.26
84928;BME280;75189;50.640;19.242;2024-01-30T05:23:10;103646.05;;;-1.70;74.23
84928;BME280;75189;50.640;19.242;2024-01-30T05:29:17;103651.23;;;-1.75;74.27
84928;BME280;75189;50.640;19.242;2024-01-30T05:35:24;103656.34;;;-1.81;74.34
84928;BME280;75189;50.640;19.242;2024-01-30T05:41:31;103646.52;;;-1.82;74.36
84928;BME280;75189;50.640;19.242;2024-01-30T05:47:39;103650.00;;;-1.85;74.39
84928;BME280;75189;50.640;19.242;2024-01-30T05:53:46;103651.65;;;-1.88;74.45
84928;BME280;75189;50.640;19.242;2024-01-30T06:00:12;103647.92;;;-1.93;74.49
84928;BME280;75189;50.640;19.242;2024-01-30T06:06:19;103650.67;;;-1.90;74.53
84928;BME280;75189;50.640;19.242;2024-01-30T06:12:27;103652.36;;;-1.94;74.57
84928;BME280;75189;50.640;19.242;2024-01-30T06:18:34;103649.68;;;-1.94;74.62
84928;BME280;75189;50.640;19.242;2024-01-30T06:24:41;103646.16;;;-1.93;74.64
84928;BME280;75189;50.640;19.242;2024-01-30T06:30:48;103646.16;;;-1.93;74.64
84928;BME280;75189;50.640;19.242;2024-01-30T06:36:55;103646.94;;;-1.95;74.73
84928;BME280;75189;50.640;19.242;2024-01-30T06:43:02;103632.80;;;-1.93;74.81
84928;BME280;75189;50.640;19.242;2024-01-30T06:49:29;103644.44;;;-1.91;74.83
84928;BME280;75189;50.640;19.242;2024-01-30T06:55:36;103651.70;;;-1.87;75.02
84928;BME280;75189;50.640;19.242;2024-01-30T07:01:43;103644.83;;;-1.80;74.92
84928;BME280;75189;50.640;19.242;2024-01-30T07:07:50;103646.84;;;-1.73;74.97
84928;BME280;75189;50.640;19.242;2024-01-30T07:13:57;103655.98;;;-1.66;74.96
84928;BME280;75189;50.640;19.242;2024-01-30T07:20:08;103656.88;;;-1.66;75.02
84928;BME280;75189;50.640;19.242;2024-01-30T07:26:16;103664.08;;;-1.63;75.06
84928;BME280;75189;50.640;19.242;2024-01-30T07:32:23;103667.77;;;-1.60;75.11
84928;BME280;75189;50.640;19.242;2024-01-30T07:38:46;103668.04;;;-1.52;75.16
84928;BME280;75189;50.640;19.242;2024-01-30T07:44:53;103659.35;;;-1.45;75.16
84928;BME280;75189;50.640;19.242;2024-01-30T07:51:00;103652.55;;;-1.35;75.10
84928;BME280;75189;50.640;19.242;2024-01-30T07:57:09;103666.36;;;-1.21;75.19
84928;BME280;75189;50.640;19.242;2024-01-30T08:03:16;103658.33;;;-0.94;75.26
84928;BME280;75189;50.640;19.242;2024-01-30T08:09:24;103660.20;;;-0.62;75.22
84928;BME280;75189;50.640;19.242;2024-01-30T08:15:31;103665.08;;;-0.18;75.15
84928;BME280;75189;50.640;19.242;2024-01-30T08:21:38;103655.80;;;0.35;74.85
84928;BME280;75189;50.640;19.242;2024-01-30T08:28:04;103660.42;;;0.77;74.52
84928;BME280;75189;50.640;19.242;2024-01-30T08:34:11;103659.52;;;1.14;74.18
84928;BME280;75189;50.640;19.242;2024-01-30T08:40:18;103659.35;;;1.47;73.70
84928;BME280;75189;50.640;19.242;2024-01-30T08:46:25;103659.29;;;1.87;73.21
84928;BME280;75189;50.640;19.242;2024-01-30T08:52:32;103656.45;;;2.26;72.32
84928;BME280;75189;50.640;19.242;2024-01-30T08:58:41;103655.38;;;2.68;71.47
84928;BME280;75189;50.640;19.242;2024-01-30T09:04:49;103638.07;;;3.06;70.75
84928;BME280;75189;50.640;19.242;2024-01-30T09:10:56;103626.13;;;3.51;69.64
84928;BME280;75189;50.640;19.242;2024-01-30T09:17:20;103620.38;;;4.01;67.89
84928;BME280;75189;50.640;19.242;2024-01-30T09:23:27;103625.32;;;4.44;65.65
84928;BME280;75189;50.640;19.242;2024-01-30T09:29:35;103617.54;;;4.90;64.92
84928;BME280;75189;50.640;19.242;2024-01-30T09:35:43;103609.70;;;5.28;64.28
84928;BME280;75189;50.640;19.242;2024-01-30T09:48:09;103612.67;;;5.92;61.85
84928;BME280;75189;50.640;19.242;2024-01-30T09:54:16;103614.52;;;6.21;59.55
84928;BME280;75189;50.640;19.242;2024-01-30T10:00:23;103598.29;;;6.45;59.03
84928;BME280;75189;50.640;19.242;2024-01-30T10:06:38;103598.29;;;6.67;57.51
84928;BME280;75189;50.640;19.242;2024-01-30T10:12:47;103593.77;;;6.85;56.85
84928;BME280;75189;50.640;19.242;2024-01-30T10:22:56;103582.88;;;7.08;56.10
84928;BME280;75189;50.640;19.242;2024-01-30T10:29:05;103562.06;;;7.26;53.97
84928;BME280;75189;50.640;19.242;2024-01-30T10:35:12;103552.98;;;7.33;54.43
84928;BME280;75189;50.640;19.242;2024-01-30T10:41:31;103554.77;;;7.37;52.92
84928;BME280;75189;50.640;19.242;2024-01-30T10:47:52;103568.27;;;7.46;53.58
84928;BME280;75189;50.640;19.242;2024-01-30T10:54:00;103544.75;;;7.56;51.96
84928;BME280;75189;50.640;19.242;2024-01-30T11:00:10;103529.34;;;7.64;52.64
84928;BME280;75189;50.640;19.242;2024-01-30T11:06:22;103525.61;;;7.80;52.24
84928;BME280;75189;50.640;19.242;2024-01-30T11:12:31;103534.50;;;8.02;52.11
84928;BME280;75189;50.640;19.242;2024-01-30T11:18:41;103518.99;;;8.20;51.73
84928;BME280;75189;50.640;19.242;2024-01-30T11:24:48;103517.97;;;8.37;51.98
84928;BME280;75189;50.640;19.242;2024-01-30T11:31:05;103508.79;;;8.49;51.34
84928;BME280;75189;50.640;19.242;2024-01-30T11:37:20;103506.05;;;8.52;50.39
84928;BME280;75189;50.640;19.242;2024-01-30T11:43:28;103489.67;;;8.61;49.60
84928;BME280;75189;50.640;19.242;2024-01-30T11:49:35;103474.18;;;8.71;49.43
84928;BME280;75189;50.640;19.242;2024-01-30T11:55:42;103477.76;;;8.75;48.79
84928;BME280;75189;50.640;19.242;2024-01-30T12:01:54;103474.09;;;8.79;48.54
84928;BME280;75189;50.640;19.242;2024-01-30T12:08:01;103465.87;;;8.85;49.03
84928;BME280;75189;50.640;19.242;2024-01-30T12:14:08;103453.19;;;8.85;48.86
84928;BME280;75189;50.640;19.242;2024-01-30T12:20:19;103321.83;;;8.22;48.57
84928;BME280;75189;50.640;19.242;2024-01-30T12:26:28;103435.94;;;8.89;48.50
84928;BME280;75189;50.640;19.242;2024-01-30T12:32:43;103435.02;;;8.90;48.36
84928;BME280;75189;50.640;19.242;2024-01-30T12:38:50;103418.81;;;8.84;47.78
84928;BME280;75189;50.640;19.242;2024-01-30T12:44:57;103427.95;;;8.79;47.23
84928;BME280;75189;50.640;19.242;2024-01-30T12:51:06;103420.57;;;8.88;48.24
84928;BME280;75189;50.640;19.242;2024-01-30T12:57:13;103404.20;;;8.91;48.40
84928;BME280;75189;50.640;19.242;2024-01-30T13:03:20;103418.77;;;8.86;48.42
84928;BME280;75189;50.640;19.242;2024-01-30T13:09:29;103415.22;;;8.81;47.46
84928;BME280;75189;50.640;19.242;2024-01-30T13:15:36;103410.74;;;8.77;47.91
84928;BME280;75189;50.640;19.242;2024-01-30T13:21:43;103408.98;;;8.73;48.28
84928;BME280;75189;50.640;19.242;2024-01-30T13:27:50;103414.48;;;8.68;48.19
84928;BME280;75189;50.640;19.242;2024-01-30T13:34:13;103395.52;;;8.63;47.33
84928;BME280;75189;50.640;19.242;2024-01-30T13:40:21;103408.33;;;8.55;46.97
84928;BME280;75189;50.640;19.242;2024-01-30T13:46:29;103405.70;;;8.46;47.74
84928;BME280;75189;50.640;19.242;2024-01-30T13:52:37;103400.37;;;8.38;48.19
84928;BME280;75189;50.640;19.242;2024-01-30T13:58:44;103409.44;;;8.33;48.13
84928;BME280;75189;50.640;19.242;2024-01-30T14:04:51;103403.21;;;8.22;48.69
84928;BME280;75189;50.640;19.242;2024-01-30T14:10:58;103403.30;;;8.12;48.60
84928;BME280;75189;50.640;19.242;2024-01-30T14:17:05;103394.40;;;7.98;48.98
84928;BME280;75189;50.640;19.242;2024-01-30T14:23:30;103394.55;;;7.86;49.11
84928;BME280;75189;50.640;19.242;2024-01-30T14:29:37;103399.13;;;7.76;49.50
84928;BME280;75189;50.640;19.242;2024-01-30T14:35:45;103397.40;;;7.66;49.29
84928;BME280;75189;50.640;19.242;2024-01-30T14:41:52;103391.16;;;7.56;49.19
84928;BME280;75189;50.640;19.242;2024-01-30T14:47:59;103385.87;;;7.41;49.96
84928;BME280;75189;50.640;19.242;2024-01-30T14:54:06;103389.56;;;7.29;50.08
84928;BME280;75189;50.640;19.242;2024-01-30T15:00:14;103390.53;;;7.19;50.23
84928;BME280;75189;50.640;19.242;2024-01-30T15:06:22;103382.47;;;7.10;50.40
84928;BME280;75189;50.640;19.242;2024-01-30T15:12:47;103380.80;;;6.89;51.09
84928;BME280;75189;50.640;19.242;2024-01-30T15:18:54;103379.99;;;6.70;51.16
84928;BME280;75189;50.640;19.242;2024-01-30T15:25:03;103379.16;;;6.47;51.65
84928;BME280;75189;50.640;19.242;2024-01-30T15:31:10;103385.57;;;6.24;52.08
84928;BME280;75189;50.640;19.242;2024-01-30T15:37:17;103389.20;;;6.00;52.58
84928;BME280;75189;50.640;19.242;2024-01-30T15:43:24;103392.80;;;5.79;52.92
84928;BME280;75189;50.640;19.242;2024-01-30T15:49:32;103385.59;;;5.52;53.36
84928;BME280;75189;50.640;19.242;2024-01-30T15:55:39;103385.57;;;5.29;53.69
84928;BME280;75189;50.640;19.242;2024-01-30T16:02:05;103396.34;;;5.05;54.19
84928;BME280;75189;50.640;19.242;2024-01-30T16:08:12;103389.09;;;4.87;54.63
84928;BME280;75189;50.640;19.242;2024-01-30T16:14:19;103394.44;;;4.72;54.86
84928;BME280;75189;50.640;19.242;2024-01-30T16:20:26;103388.94;;;4.49;55.26
84928;BME280;75189;50.640;19.242;2024-01-30T16:26:33;103394.27;;;4.37;55.67
84928;BME280;75189;50.640;19.242;2024-01-30T16:32:40;103396.90;;;4.29;55.87
84928;BME280;75189;50.640;19.242;2024-01-30T16:38:47;103398.59;;;4.10;56.20
84928;BME280;75189;50.640;19.242;2024-01-30T16:44:54;103392.17;;;3.90;56.54
84928;BME280;75189;50.640;19.242;2024-01-30T16:51:21;103390.16;;;3.63;56.98
84928;BME280;75189;50.640;19.242;2024-01-30T16:57:29;103394.48;;;3.42;57.38
84928;BME280;75189;50.640;19.242;2024-01-30T17:03:36;103390.82;;;3.37;57.63
84928;BME280;75189;50.640;19.242;2024-01-30T17:09:43;103389.82;;;3.24;57.91
84928;BME280;75189;50.640;19.242;2024-01-30T17:15:50;103385.20;;;3.14;58.19
84928;BME280;75189;50.640;19.242;2024-01-30T17:21:57;103379.77;;;3.06;58.45
84928;BME280;75189;50.640;19.242;2024-01-30T17:28:04;103375.13;;;2.95;58.64
84928;BME280;75189;50.640;19.242;2024-01-30T17:34:12;103380.36;;;2.78;58.93
84928;BME280;75189;50.640;19.242;2024-01-30T17:40:38;103376.67;;;2.71;59.31
84928;BME280;75189;50.640;19.242;2024-01-30T17:46:46;103375.72;;;2.68;59.61
84928;BME280;75189;50.640;19.242;2024-01-30T17:52:54;103376.61;;;2.65;59.82
84928;BME280;75189;50.640;19.242;2024-01-30T17:59:03;103376.63;;;2.67;59.91
84928;BME280;75189;50.640;19.242;2024-01-30T18:05:13;103395.44;;;2.65;60.11
84928;BME280;75189;50.640;19.242;2024-01-30T18:11:20;103372.23;;;2.73;60.13
84928;BME280;75189;50.640;19.242;2024-01-30T18:17:27;103375.87;;;2.78;60.09
84928;BME280;75189;50.640;19.242;2024-01-30T18:23:35;103369.62;;;2.81;60.02
84928;BME280;75189;50.640;19.242;2024-01-30T18:29:56;103368.77;;;2.84;59.96
84928;BME280;75189;50.640;19.242;2024-01-30T18:36:03;103374.13;;;2.82;59.91
84928;BME280;75189;50.640;19.242;2024-01-30T18:42:12;103369.59;;;2.79;59.89
84928;BME280;75189;50.640;19.242;2024-01-30T18:48:19;103372.29;;;2.79;59.77
84928;BME280;75189;50.640;19.242;2024-01-30T18:54:27;103385.74;;;2.79;59.78
84928;BME280;75189;50.640;19.242;2024-01-30T19:00:34;103371.41;;;2.80;59.68
84928;BME280;75189;50.640;19.242;2024-01-30T19:06:47;103369.59;;;2.78;59.51
84928;BME280;75189;50.640;19.242;2024-01-30T19:12:58;103362.37;;;2.74;59.39
84928;BME280;75189;50.640;19.242;2024-01-30T19:19:13;103365.97;;;2.74;59.20
84928;BME280;75189;50.640;19.242;2024-01-30T19:25:20;103366.06;;;2.84;58.64
84928;BME280;75189;50.640;19.242;2024-01-30T19:31:27;103368.91;;;2.97;58.20
84928;BME280;75189;50.640;19.242;2024-01-30T19:37:34;103376.19;;;3.08;57.55
84928;BME280;75189;50.640;19.242;2024-01-30T19:43:44;103371.79;;;3.16;57.37
84928;BME280;75189;50.640;19.242;2024-01-30T19:49:51;103367.34;;;3.19;57.31
84928;BME280;75189;50.640;19.242;2024-01-30T19:55:58;103370.98;;;3.24;57.14
84928;BME280;75189;50.640;19.242;2024-01-30T20:02:05;103381.80;;;3.32;56.71
84928;BME280;75189;50.640;19.242;2024-01-30T20:08:30;103381.79;;;3.30;56.69
84928;BME280;75189;50.640;19.242;2024-01-30T20:14:41;103382.69;;;3.32;56.80
84928;BME280;75189;50.640;19.242;2024-01-30T20:20:48;103381.79;;;3.29;56.68
84928;BME280;75189;50.640;19.242;2024-01-30T20:26:55;103380.90;;;3.28;56.64
84928;BME280;75189;50.640;19.242;2024-01-30T20:33:03;103380.90;;;3.30;56.50
84928;BME280;75189;50.640;19.242;2024-01-30T20:39:10;103370.98;;;3.24;56.76
84928;BME280;75189;50.640;19.242;2024-01-30T20:45:20;103373.67;;;3.26;56.76
84928;BME280;75189;50.640;19.242;2024-01-30T20:51:29;103363.80;;;3.25;56.70
84928;BME280;75189;50.640;19.242;2024-01-30T20:57:47;103358.42;;;3.25;56.73
84928;BME280;75189;50.640;19.242;2024-01-30T21:03:54;103359.28;;;3.21;56.76
84928;BME280;75189;50.640;19.242;2024-01-30T21:10:01;103349.33;;;3.14;56.72
84928;BME280;75189;50.640;19.242;2024-01-30T21:16:09;103357.35;;;3.08;56.73
84928;BME280;75189;50.640;19.242;2024-01-30T21:22:16;103354.66;;;3.08;56.94
84928;BME280;75189;50.640;19.242;2024-01-30T21:28:24;103355.52;;;3.05;57.02
84928;BME280;75189;50.640;19.242;2024-01-30T21:34:31;103360.89;;;3.02;56.96
84928;BME280;75189;50.640;19.242;2024-01-30T21:40:38;103361.74;;;2.99;57.05
84928;BME280;75189;50.640;19.242;2024-01-30T21:47:04;103369.86;;;3.01;57.04
84928;BME280;75189;50.640;19.242;2024-01-30T21:53:11;103360.89;;;3.03;57.07
84928;BME280;75189;50.640;19.242;2024-01-30T21:59:18;103365.37;;;3.01;57.11
84928;BME280;75189;50.640;19.242;2024-01-30T22:05:25;103353.66;;;2.98;57.23
84928;BME280;75189;50.640;19.242;2024-01-30T22:11:32;103277.88;;;2.53;57.27
84928;BME280;75189;50.640;19.242;2024-01-30T22:17:39;103361.68;;;2.92;57.40
84928;BME280;75189;50.640;19.242;2024-01-30T22:23:46;103360.79;;;2.93;57.47
84928;BME280;75189;50.640;19.242;2024-01-30T22:29:53;103367.97;;;2.94;57.46
84928;BME280;75189;50.640;19.242;2024-01-30T22:36:21;103361.70;;;2.95;57.57
84928;BME280;75189;50.640;19.242;2024-01-30T22:42:28;103372.50;;;2.98;57.59
84928;BME280;75189;50.640;19.242;2024-01-30T22:48:35;103367.12;;;2.96;57.70
84928;BME280;75189;50.640;19.242;2024-01-30T22:54:41;103370.69;;;2.97;57.84
84928;BME280;75189;50.640;19.242;2024-01-30T23:00:49;103362.59;;;2.94;57.83
84928;BME280;75189;50.640;19.242;2024-01-30T23:06:56;103367.12;;;2.96;57.83
84928;BME280;75189;50.640;19.242;2024-01-30T23:13:03;103361.65;;;2.90;57.88
84928;BME280;75189;50.640;19.242;2024-01-30T23:19:10;103371.51;;;2.90;57.88
84928;BME280;75189;50.640;19.242;2024-01-30T23:25:38;103365.22;;;2.89;57.98
84928;BME280;75189;50.640;19.242;2024-01-30T23:31:45;103362.48;;;2.83;58.06
84928;BME280;75189;50.640;19.242;2024-01-30T23:37:52;103359.79;;;2.83;58.16
84928;BME280;75189;50.640;19.242;2024-01-30T23:43:59;103375.04;;;2.84;58.16
84928;BME280;75189;50.640;19.242;2024-01-30T23:50:06;103372.34;;;2.84;58.20
84928;BME280;75189;50.640;19.242;2024-01-30T23:56:14;103362.37;;;2.75;58.26
